createdAt,value
2023-04-02T00:01:22.015Z,98188.06
2023-04-02T00:03:59.532Z,98189.53
2023-04-02T00:06:30.159Z,98186.19
2023-04-02T00:09:02.967Z,98184.34
2023-04-02T00:11:40.372Z,98192.91
2023-04-02T00:14:30.862Z,98194.41
2023-04-02T00:17:02.541Z,98182.75
2023-04-02T00:19:48.684Z,98186.44
2023-04-02T00:22:28.301Z,98172.84
2023-04-02T00:24:57.070Z,98195.50
2023-04-02T00:27:24.211Z,98194.03
2023-04-02T00:29:59.324Z,98198.75
2023-04-02T00:32:30.674Z,98198.75
2023-04-02T00:34:58.842Z,98193.56
2023-04-02T00:37:29.469Z,98193.47
2023-04-02T00:40:06.024Z,98195.78
2023-04-02T00:42:35.007Z,98195.59
2023-04-02T00:45:04.204Z,98191.44
2023-04-02T00:47:37.343Z,98188.69
2023-04-02T00:50:30.243Z,98187.66
2023-04-02T00:52:58.415Z,98191.44
2023-04-02T00:55:28.208Z,98202.06
2023-04-02T00:57:58.327Z,98200.88
2023-04-02T01:00:35.369Z,98201.16
2023-04-02T01:03:17.550Z,98201.81
2023-04-02T01:05:51.284Z,98203.53
2023-04-02T01:08:56.690Z,98209.00
2023-04-02T01:12:14.946Z,98207.13
2023-04-02T01:15:26.283Z,98201.63
2023-04-02T01:18:20.946Z,98211.59
2023-04-02T01:21:10.388Z,98216.97
2023-04-02T01:24:04.394Z,98221.22
2023-04-02T01:26:53.960Z,98216.97
2023-04-02T01:29:24.701Z,98207.53
2023-04-02T01:31:53.655Z,98223.09
2023-04-02T01:34:26.009Z,98222.91
2023-04-02T01:37:16.871Z,98223.91
2023-04-02T01:40:06.036Z,98221.41
2023-04-02T01:43:06.538Z,98230.47
2023-04-02T01:45:35.108Z,98223.91
2023-04-02T01:48:14.316Z,98237.16
2023-04-02T01:50:43.502Z,98236.97
2023-04-02T01:53:14.696Z,98240.41
2023-04-02T01:55:50.817Z,98231.59
2023-04-02T01:58:25.651Z,98239.19
2023-04-02T02:01:01.484Z,98239.38
2023-04-02T02:03:29.184Z,98245.09
2023-04-02T02:05:56.912Z,98237.72
2023-04-02T02:08:40.220Z,98231.25
2023-04-02T02:11:13.410Z,98246.78
2023-04-02T02:13:42.264Z,98235.13
2023-04-02T02:16:17.839Z,98248.53
2023-04-02T02:18:51.382Z,98223.81
2023-04-02T02:21:44.939Z,98249.91
2023-04-02T02:24:35.706Z,98258.91
2023-04-02T02:27:23.762Z,98256.22
2023-04-02T02:29:54.526Z,98259.63
2023-04-02T02:32:26.050Z,98258.59
2023-04-02T02:35:32.364Z,98262.88
2023-04-02T02:38:30.310Z,98268.78
2023-04-02T02:41:06.806Z,98264.53
2023-04-02T02:43:35.137Z,98276.53
2023-04-02T02:46:05.821Z,98267.22
2023-04-02T02:48:39.167Z,98264.72
2023-04-02T02:51:14.510Z,98268.41
2023-04-02T02:53:50.978Z,98273.97
2023-04-02T02:56:20.495Z,98268.78
2023-04-02T02:58:47.483Z,98282.19
2023-04-02T03:01:14.455Z,98280.44
2023-04-02T03:03:41.469Z,98283.75
2023-04-02T03:06:16.494Z,98281.31
2023-04-02T03:09:05.047Z,98274.50
2023-04-02T03:11:54.757Z,98285.31
2023-04-02T03:15:11.932Z,98302.03
2023-04-02T03:18:06.617Z,98296.19
2023-04-02T03:20:58.150Z,98298.31
2023-04-02T03:23:35.053Z,98294.91
2023-04-02T03:26:12.285Z,98294.91
2023-04-02T03:28:50.520Z,98294.16
2023-04-02T03:31:28.361Z,98320.72
2023-04-02T03:33:59.846Z,98320.72
2023-04-02T03:36:33.409Z,98303.34
2023-04-02T03:39:23.847Z,98312.25
2023-04-02T03:42:05.915Z,98315.72
2023-04-02T03:44:43.679Z,98325.91
2023-04-02T03:47:34.395Z,98327.41
2023-04-02T03:50:08.656Z,98329.16
2023-04-02T03:52:37.764Z,98331.75
2023-04-02T03:55:15.930Z,98330.94
2023-04-02T03:58:15.429Z,98331.81
2023-04-02T04:00:55.271Z,98315.06
2023-04-02T04:03:31.746Z,98327.03
2023-04-02T04:06:27.650Z,98339.44
2023-04-02T04:09:30.593Z,98338.59
2023-04-02T04:12:25.702Z,98345.53
2023-04-02T04:15:05.874Z,98346.63
2023-04-02T04:17:54.110Z,98346.78
2023-04-02T04:20:28.053Z,98342.56
2023-04-02T04:22:56.045Z,98348.63
2023-04-02T04:25:33.705Z,98355.31
2023-04-02T04:28:25.626Z,98365.75
2023-04-02T04:31:27.274Z,98361.44
2023-04-02T04:34:05.047Z,98358.19
2023-04-02T04:36:54.533Z,98362.44
2023-04-02T04:39:44.244Z,98375.19
2023-04-02T04:42:20.668Z,98377.88
2023-04-02T04:45:14.115Z,98379.56
2023-04-02T04:48:09.503Z,98382.28
2023-04-02T04:50:59.909Z,98387.66
2023-04-02T04:53:29.425Z,98390.06
2023-04-02T04:56:12.546Z,98384.41
2023-04-02T04:59:12.842Z,98387.84
2023-04-02T05:01:50.751Z,98388.00
2023-04-02T05:04:31.995Z,98399.94
2023-04-02T05:07:26.480Z,98368.91
2023-04-02T05:10:11.798Z,98405.94
2023-04-02T05:12:51.931Z,98399.19
2023-04-02T05:15:32.766Z,98399.94
2023-04-02T05:18:11.773Z,98408.44
2023-04-02T05:20:56.579Z,98382.84
2023-04-02T05:23:37.692Z,98417.97
2023-04-02T05:26:37.128Z,98411.97
2023-04-02T05:29:25.222Z,98416.31
2023-04-02T05:32:03.944Z,98424.91
2023-04-02T05:34:37.146Z,98418.16
2023-04-02T05:37:07.121Z,98425.34
2023-04-02T05:39:34.096Z,98427.00
2023-04-02T05:42:08.293Z,98434.69
2023-04-02T05:44:41.628Z,98441.44
2023-04-02T05:47:17.565Z,98440.53
2023-04-02T05:50:08.567Z,98444.03
2023-04-02T05:52:42.911Z,98448.38
2023-04-02T05:55:12.700Z,98451.72
2023-04-02T05:58:10.403Z,98445.09
2023-04-02T06:00:59.798Z,98458.72
2023-04-02T06:03:46.266Z,98452.56
2023-04-02T06:06:39.216Z,98469.75
2023-04-02T06:09:38.846Z,98474.00
2023-04-02T06:12:19.498Z,98465.75
2023-04-02T06:14:46.739Z,98466.75
2023-04-02T06:17:20.196Z,98471.75
2023-04-02T06:19:47.995Z,98480.28
2023-04-02T06:22:25.300Z,98487.94
2023-04-02T06:25:09.882Z,98480.44
2023-04-02T06:27:39.430Z,98492.13
2023-04-02T06:30:17.084Z,98487.13
2023-04-02T06:32:43.977Z,98500.66
2023-04-02T06:35:15.012Z,98498.22
2023-04-02T06:37:57.327Z,98504.16
2023-04-02T06:40:35.569Z,98514.41
2023-04-02T06:43:37.112Z,98512.69
2023-04-02T06:46:20.299Z,98521.38
2023-04-02T06:48:51.384Z,98516.19
2023-04-02T06:51:21.863Z,98518.94
2023-04-02T06:53:50.477Z,98520.72
2023-04-02T06:56:42.415Z,98531.66
2023-04-02T06:59:13.083Z,98536.16
2023-04-02T07:01:48.934Z,98533.78
2023-04-02T07:04:20.210Z,98552.28
2023-04-02T07:06:48.695Z,98543.91
2023-04-02T07:09:16.610Z,98553.94
2023-04-02T07:11:43.551Z,98547.94
2023-04-02T07:14:15.423Z,98553.94
2023-04-02T07:16:43.601Z,98561.59
2023-04-02T07:19:21.884Z,98558.13
2023-04-02T07:21:49.374Z,98561.69
2023-04-02T07:24:16.377Z,98569.28
2023-04-02T07:26:43.240Z,98576.91
2023-04-02T07:29:15.951Z,98561.88
2023-04-02T07:31:43.623Z,98570.22
2023-04-02T07:34:10.600Z,98589.78
2023-04-02T07:36:37.717Z,98593.22
2023-04-02T07:39:04.651Z,98585.44
2023-04-02T07:41:31.529Z,98583.00
2023-04-02T07:43:58.477Z,98584.69
2023-04-02T07:46:26.014Z,98588.16
2023-04-02T07:48:53.034Z,98605.06
2023-04-02T07:51:23.569Z,98596.69
2023-04-02T07:53:54.836Z,98603.22
2023-04-02T07:56:24.666Z,98611.75
2023-04-02T07:58:51.551Z,98613.59
2023-04-02T08:01:27.159Z,98621.94
2023-04-02T08:03:58.038Z,98616.25
2023-04-02T08:06:25.668Z,98625.47
2023-04-02T08:08:52.627Z,98621.19
2023-04-02T08:11:19.842Z,98627.97
2023-04-02T08:13:46.820Z,98620.28
2023-04-02T08:16:13.728Z,98631.31
2023-04-02T08:18:41.132Z,98624.69
2023-04-02T08:21:10.511Z,98640.66
2023-04-02T08:23:38.157Z,98623.78
2023-04-02T08:26:06.118Z,98634.13
2023-04-02T08:28:32.983Z,98622.41
2023-04-02T08:30:59.966Z,98651.69
2023-04-02T08:33:27.021Z,98654.38
2023-04-02T08:35:53.893Z,98654.44
2023-04-02T08:38:22.460Z,98653.59
2023-04-02T08:40:56.575Z,98663.66
2023-04-02T08:44:20.061Z,98664.38
2023-04-02T08:47:05.896Z,98670.50
2023-04-02T08:49:43.015Z,98669.56
2023-04-02T08:52:32.038Z,98672.00
2023-04-02T08:55:00.454Z,98664.63
2023-04-02T08:57:51.880Z,98676.25
2023-04-02T09:00:42.066Z,98676.59
2023-04-02T09:03:21.910Z,98685.09
2023-04-02T09:05:51.149Z,98691.22
2023-04-02T09:08:21.805Z,98698.75
2023-04-02T09:11:27.286Z,98687.44
2023-04-02T09:14:00.260Z,98700.66
2023-04-02T09:16:51.274Z,98702.34
2023-04-02T09:19:44.555Z,98703.25
2023-04-02T09:22:40.775Z,98707.25
2023-04-02T09:25:17.903Z,98704.84
2023-04-02T09:27:53.246Z,98712.88
2023-04-02T09:30:32.178Z,98711.00
2023-04-02T09:33:07.340Z,98710.69
2023-04-02T09:35:37.871Z,98720.47
2023-04-02T09:38:07.812Z,98729.53
2023-04-02T09:41:01.589Z,98726.66
2023-04-02T09:43:39.445Z,98734.28
2023-04-02T09:46:25.935Z,98742.03
2023-04-02T09:49:01.515Z,98740.72
2023-04-02T09:51:34.701Z,98740.38
2023-04-02T09:54:04.413Z,98749.78
2023-04-02T09:56:37.179Z,98741.16
2023-04-02T09:59:21.855Z,98748.00
2023-04-02T10:01:54.708Z,98746.25
2023-04-02T10:04:47.688Z,98744.81
2023-04-02T10:08:02.171Z,98754.53
2023-04-02T10:10:47.039Z,98764.47
2023-04-02T10:13:52.079Z,98764.22
2023-04-02T10:16:34.093Z,98765.22
2023-04-02T10:19:18.867Z,98771.09
2023-04-02T10:21:49.081Z,98768.81
2023-04-02T10:24:17.648Z,98765.53
2023-04-02T10:27:22.420Z,98768.88
2023-04-02T10:30:16.308Z,98767.38
2023-04-02T10:33:09.342Z,98756.97
2023-04-02T10:35:47.972Z,98777.25
2023-04-02T10:38:45.420Z,98778.78
2023-04-02T10:41:44.196Z,98783.78
2023-04-02T10:44:25.165Z,98788.81
2023-04-02T10:47:38.332Z,98786.69
2023-04-02T10:50:45.628Z,98784.63
2023-04-02T10:53:19.179Z,98796.00
2023-04-02T10:55:53.121Z,98801.34
2023-04-02T10:58:27.658Z,98760.22
2023-04-02T11:01:04.521Z,98787.78
2023-04-02T11:03:44.612Z,98808.19
2023-04-02T11:06:43.165Z,98811.06
2023-04-02T11:09:32.420Z,98811.25
2023-04-02T11:12:01.444Z,98808.69
2023-04-02T11:14:31.510Z,98821.75
2023-04-02T11:17:01.491Z,98820.25
2023-04-02T11:19:31.868Z,98824.19
2023-04-02T11:22:01.954Z,98829.81
2023-04-02T11:24:33.538Z,98830.69
2023-04-02T11:27:14.412Z,98827.47
2023-04-02T11:30:04.378Z,98829.72
2023-04-02T11:32:39.621Z,98822.50
2023-04-02T11:35:32.852Z,98831.56
2023-04-02T11:38:10.846Z,98831.47
2023-04-02T11:40:47.857Z,98840.81
2023-04-02T11:43:33.187Z,98838.22
2023-04-02T11:46:29.509Z,98842.16
2023-04-02T11:49:39.908Z,98845.59
2023-04-02T11:52:38.099Z,98851.94
2023-04-02T11:55:24.733Z,98835.75
2023-04-02T11:58:22.640Z,98850.53
2023-04-02T12:01:24.986Z,98842.47
2023-04-02T12:04:12.533Z,98854.94
2023-04-02T12:07:11.195Z,98850.84
2023-04-02T12:09:56.386Z,98854.09
2023-04-02T12:12:27.054Z,98854.59
2023-04-02T12:14:56.619Z,98851.94
2023-04-02T12:17:32.044Z,98862.38
2023-04-02T12:20:27.336Z,98867.84
2023-04-02T12:22:56.419Z,98867.00
2023-04-02T12:25:32.274Z,98874.50
2023-04-02T12:28:28.937Z,98874.63
2023-04-02T12:31:09.978Z,98872.84
2023-04-02T12:33:39.190Z,98880.88
2023-04-02T12:36:18.710Z,98871.44
2023-04-02T12:39:03.676Z,98880.03
2023-04-02T12:41:37.215Z,98879.72
2023-04-02T12:44:18.493Z,98881.91
2023-04-02T12:46:46.493Z,98881.38
2023-04-02T12:49:36.843Z,98881.31
2023-04-02T12:52:16.721Z,98883.59
2023-04-02T12:54:54.027Z,98880.91
2023-04-02T12:57:26.473Z,98893.31
2023-04-02T13:00:21.718Z,98891.13
2023-04-02T13:03:06.808Z,98889.97
2023-04-02T13:05:54.670Z,98888.44
2023-04-02T13:08:51.289Z,98893.50
2023-04-02T13:11:18.299Z,98896.97
2023-04-02T13:13:48.499Z,98891.63
2023-04-02T13:16:15.270Z,98901.84
2023-04-02T13:18:45.360Z,98891.28
2023-04-02T13:21:21.132Z,98900.00
2023-04-02T13:23:48.042Z,98885.75
2023-04-02T13:26:29.243Z,98887.50
2023-04-02T13:28:59.612Z,98908.84
2023-04-02T13:31:27.445Z,98901.06
2023-04-02T13:33:54.302Z,98903.81
2023-04-02T13:36:21.195Z,98875.53
2023-04-02T13:38:48.122Z,98910.03
2023-04-02T13:41:26.480Z,98907.19
2023-04-02T13:43:55.424Z,98908.81
2023-04-02T13:46:32.003Z,98912.75
2023-04-02T13:48:59.017Z,98911.25
2023-04-02T13:51:45.182Z,98921.13
2023-04-02T13:54:22.979Z,98919.72
2023-04-02T13:56:49.966Z,98904.44
2023-04-02T13:59:17.438Z,98929.00
2023-04-02T14:01:47.212Z,98924.41
2023-04-02T14:04:19.878Z,98926.31
2023-04-02T14:07:46.553Z,98931.16
2023-04-02T14:10:44.809Z,98930.25
2023-04-02T14:13:56.995Z,98938.78
2023-04-02T14:16:55.758Z,98946.72
2023-04-02T14:19:38.801Z,98947.16
2023-04-02T14:22:29.908Z,98956.88
2023-04-02T14:25:14.139Z,98946.22
2023-04-02T14:28:03.041Z,98964.06
2023-04-02T14:31:00.028Z,98975.69
2023-04-02T14:33:53.124Z,98938.47
2023-04-02T14:36:38.949Z,98973.69
2023-04-02T14:39:26.314Z,98977.13
2023-04-02T14:42:17.274Z,98980.53
2023-04-02T14:44:58.030Z,98976.38
2023-04-02T14:47:37.379Z,98943.50
2023-04-02T14:50:27.987Z,98978.03
2023-04-02T14:53:02.356Z,98972.16
2023-04-02T14:55:44.246Z,98983.31
2023-04-02T14:58:31.684Z,98983.31
2023-04-02T15:01:25.590Z,98992.91
2023-04-02T15:04:06.927Z,98996.09
2023-04-02T15:06:58.856Z,99001.31
2023-04-02T15:09:42.330Z,98981.19
2023-04-02T15:12:17.399Z,99010.00
2023-04-02T15:14:47.837Z,99002.06
2023-04-02T15:17:14.948Z,99005.13
2023-04-02T15:19:41.884Z,99009.16
2023-04-02T15:22:35.459Z,99017.97
2023-04-02T15:25:07.866Z,99023.00
2023-04-02T15:27:57.105Z,99024.75
2023-04-02T15:30:31.132Z,99038.22
2023-04-02T15:33:23.633Z,99039.31
2023-04-02T15:36:32.517Z,99051.44
2023-04-02T15:39:34.398Z,99058.72
2023-04-02T15:42:20.401Z,99053.81
2023-04-02T15:45:12.843Z,99047.25
2023-04-02T15:48:03.026Z,99063.69
2023-04-02T15:51:08.742Z,99071.72
2023-04-02T15:53:49.897Z,99071.47
2023-04-02T15:56:26.735Z,99080.88
2023-04-02T15:59:13.278Z,99081.75
2023-04-02T16:02:17.498Z,99087.13
2023-04-02T16:05:08.990Z,99089.78
2023-04-02T16:07:53.915Z,99090.31
2023-04-02T16:10:42.071Z,99092.22
2023-04-02T16:13:34.727Z,99106.94
2023-04-02T16:16:26.878Z,99107.09
2023-04-02T16:19:03.795Z,99107.25
2023-04-02T16:22:04.237Z,99108.22
2023-04-02T16:24:31.240Z,99114.34
2023-04-02T16:27:23.580Z,99117.88
2023-04-02T16:30:08.296Z,99129.22
2023-04-02T16:33:16.486Z,99131.19
2023-04-02T16:36:07.399Z,99135.31
2023-04-02T16:39:29.164Z,99151.84
2023-04-02T16:42:07.658Z,99145.00
2023-04-02T16:44:50.320Z,99160.31
2023-04-02T16:48:13.184Z,99162.22
2023-04-02T16:51:21.428Z,99164.72
2023-04-02T16:54:01.454Z,99168.25
2023-04-02T16:57:13.313Z,99170.75
2023-04-02T16:59:56.004Z,99182.00
2023-04-02T17:03:16.445Z,99183.81
2023-04-02T17:06:14.745Z,99193.47
2023-04-02T17:09:43.171Z,99202.13
2023-04-02T17:12:19.750Z,99196.22
2023-04-02T17:15:20.973Z,99208.72
2023-04-02T17:17:58.662Z,99205.16
2023-04-02T17:20:26.767Z,99210.44
2023-04-02T17:22:54.692Z,99220.78
2023-04-02T17:25:33.986Z,99214.97
2023-04-02T17:28:03.029Z,99222.59
2023-04-02T17:30:45.945Z,99237.06
2023-04-02T17:33:18.783Z,99240.69
2023-04-02T17:36:16.390Z,99240.75
2023-04-02T17:39:41.921Z,99257.63
2023-04-02T17:42:21.447Z,99254.03
2023-04-02T17:45:07.556Z,99265.03
2023-04-02T17:48:07.594Z,99278.13
2023-04-02T17:51:02.046Z,99272.00
2023-04-02T17:53:32.038Z,99279.72
2023-04-02T17:56:40.925Z,99283.47
2023-04-02T17:59:13.615Z,99296.75
2023-04-02T18:02:13.953Z,99309.97
2023-04-02T18:04:56.170Z,99309.22
2023-04-02T18:07:53.204Z,99315.78
2023-04-02T18:10:48.037Z,99319.22
2023-04-02T18:13:41.387Z,99339.75
2023-04-02T18:16:48.566Z,99337.13
2023-04-02T18:19:18.161Z,99339.69
2023-04-02T18:22:13.456Z,99346.69
2023-04-02T18:25:19.222Z,99353.59
2023-04-02T18:28:30.606Z,99360.59
2023-04-02T18:31:28.308Z,99368.44
2023-04-02T18:34:20.684Z,99377.22
2023-04-02T18:37:08.973Z,99384.69
2023-04-02T18:39:59.943Z,99401.41
2023-04-02T18:43:08.179Z,99395.94
2023-04-02T18:45:51.041Z,99401.59
2023-04-02T18:48:48.136Z,99394.63
2023-04-02T18:51:23.749Z,99423.84
2023-04-02T18:54:13.684Z,99429.75
2023-04-02T18:56:41.987Z,99440.88
2023-04-02T18:59:51.298Z,99450.44
2023-04-02T19:02:41.773Z,99450.63
2023-04-02T19:05:35.205Z,99456.41
2023-04-02T19:08:24.703Z,99460.03
2023-04-02T19:11:01.503Z,99471.06
2023-04-02T19:13:28.353Z,99455.75
2023-04-02T19:16:14.662Z,99471.25
2023-04-02T19:19:02.706Z,99475.94
2023-04-02T19:22:24.870Z,99486.09
2023-04-02T19:25:12.802Z,99492.38
2023-04-02T19:28:10.733Z,99501.75
2023-04-02T19:31:08.720Z,99500.94
2023-04-02T19:33:43.032Z,99506.84
2023-04-02T19:36:56.155Z,99524.97
2023-04-02T19:40:04.580Z,99525.00
2023-04-02T19:42:48.479Z,99521.81
2023-04-02T19:45:38.611Z,99522.22
2023-04-02T19:48:17.566Z,99523.03
2023-04-02T19:50:45.099Z,99537.75
2023-04-02T19:53:12.634Z,99540.22
2023-04-02T19:55:44.326Z,99541.91
2023-04-02T19:58:28.581Z,99553.25
2023-04-02T20:00:55.929Z,99558.25
2023-04-02T20:03:23.461Z,99562.59
2023-04-02T20:05:50.758Z,99550.03
2023-04-02T20:08:17.780Z,99566.28
2023-04-02T20:10:45.674Z,99572.38
2023-04-02T20:13:12.624Z,99563.81
2023-04-02T20:15:41.025Z,99578.53
2023-04-02T20:18:07.927Z,99568.75
2023-04-02T20:20:35.027Z,99588.28
2023-04-02T20:23:02.128Z,99572.03
2023-04-02T20:25:28.977Z,99580.59
2023-04-02T20:27:56.041Z,99585.03
2023-04-02T20:30:22.876Z,99583.25
2023-04-02T20:32:49.860Z,99566.91
2023-04-02T20:35:16.736Z,99575.28
2023-04-02T20:37:43.932Z,99592.44
2023-04-02T20:40:11.007Z,99593.81
2023-04-02T20:42:37.828Z,99594.69
2023-04-02T20:45:06.149Z,99598.75
2023-04-02T20:47:33.239Z,99606.44
2023-04-02T20:50:00.131Z,99607.47
2023-04-02T20:52:28.035Z,99612.84
2023-04-02T20:54:54.902Z,99618.78
2023-04-02T20:57:22.863Z,99623.03
2023-04-02T20:59:49.660Z,99624.59
2023-04-02T21:02:16.833Z,99630.66
2023-04-02T21:04:43.714Z,99629.88
2023-04-02T21:07:10.571Z,99631.78
2023-04-02T21:09:37.366Z,99635.25
2023-04-02T21:12:04.362Z,99647.34
2023-04-02T21:14:35.899Z,99634.78
2023-04-02T21:17:02.732Z,99631.44
2023-04-02T21:19:29.610Z,99650.88
2023-04-02T21:21:56.416Z,99648.56
2023-04-02T21:24:23.254Z,99656.25
2023-04-02T21:26:50.618Z,99647.00
2023-04-02T21:29:17.646Z,99664.06
2023-04-02T21:31:44.502Z,99656.41
2023-04-02T21:34:16.791Z,99669.22
2023-04-02T21:36:48.438Z,99658.06
2023-04-02T21:39:21.620Z,99665.81
2023-04-02T21:41:50.923Z,99668.47
2023-04-02T21:44:21.004Z,99661.78
2023-04-02T21:46:49.814Z,99668.66
2023-04-02T21:49:20.147Z,99668.72
2023-04-02T21:51:47.790Z,99667.00
2023-04-02T21:54:15.010Z,99661.22
2023-04-02T21:56:46.433Z,99664.47
2023-04-02T21:59:16.013Z,99667.28
2023-04-02T22:01:50.315Z,99665.66
2023-04-02T22:04:23.654Z,99678.47
2023-04-02T22:06:52.187Z,99692.38
2023-04-02T22:09:25.205Z,99686.56
2023-04-02T22:11:59.146Z,99683.22
2023-04-02T22:14:27.441Z,99691.63
2023-04-02T22:16:54.613Z,99694.09
2023-04-02T22:19:21.465Z,99695.78
2023-04-02T22:21:48.260Z,99688.38
2023-04-02T22:24:18.808Z,99700.28
2023-04-02T22:26:46.198Z,99708.44
2023-04-02T22:29:13.015Z,99716.03
2023-04-02T22:31:40.444Z,99706.53
2023-04-02T22:34:07.644Z,99712.47
2023-04-02T22:36:35.287Z,99710.88
2023-04-02T22:39:05.557Z,99712.53
2023-04-02T22:41:33.084Z,99719.34
2023-04-02T22:44:01.254Z,99709.88
2023-04-02T22:46:28.995Z,99713.19
2023-04-02T22:48:57.327Z,99714.94
2023-04-02T22:51:27.523Z,99713.22
2023-04-02T22:53:55.727Z,99706.44
2023-04-02T22:56:27.578Z,99698.84
2023-04-02T22:58:54.516Z,99717.63
2023-04-02T23:01:36.072Z,99716.03
2023-04-02T23:04:05.045Z,99724.50
2023-04-02T23:06:32.255Z,99714.22
2023-04-02T23:08:59.089Z,99716.72
2023-04-02T23:11:27.786Z,99715.03
2023-04-02T23:13:56.846Z,99713.31
2023-04-02T23:16:26.928Z,99712.50
2023-04-02T23:18:54.521Z,99713.31
2023-04-02T23:21:22.024Z,99697.34
2023-04-02T23:23:50.424Z,99709.34
2023-04-02T23:26:35.575Z,99716.03
2023-04-02T23:29:02.726Z,99706.75
2023-04-02T23:31:29.859Z,99710.16
2023-04-02T23:33:56.762Z,99706.81
2023-04-02T23:36:26.083Z,99707.63
2023-04-02T23:38:55.510Z,99699.34
2023-04-02T23:41:24.955Z,99719.72
2023-04-02T23:43:51.824Z,99716.34
2023-04-02T23:46:19.756Z,99704.38
2023-04-02T23:48:47.472Z,99708.63
2023-04-02T23:51:14.585Z,99695.94
2023-04-02T23:53:42.323Z,99704.44
2023-04-02T23:56:10.169Z,99699.53
2023-04-02T23:58:36.982Z,99689.25
